Time;durP1;ratioP1;P1;durP2;ratioP2;P2;SDS_P1;SDS_P2;PMS_P1;PMS_P2;Temp;Humidity;BMP_temperature;BMP_pressure;BME280_temperature;BME280_humidity;BME280_pressure;Samples;Min_cycle;Max_cycle;Signal;HPM_P1;HPM_P2
2022/05/05 00:00:38;;;;;;;5.68;3.95;;;;;;;20.81;52.78;99796.25;4962019;29;20026;-89
2022/05/05 00:03:04;;;;;;;5.00;3.47;;;;;;;20.78;52.67;99797.25;4961508;29;20101;-87
2022/05/05 00:05:30;;;;;;;5.40;3.65;;;;;;;20.77;52.57;99795.53;4962145;29;20392;-87
2022/05/05 00:07:55;;;;;;;5.05;3.78;;;;;;;20.77;52.59;99801.69;4961162;29;20412;-88
2022/05/05 00:15:49;;;;;;;4.93;4.00;;;;;;;20.73;52.70;99800.16;4960674;29;20049;-88
2022/05/05 00:18:14;;;;;;;5.07;4.00;;;;;;;20.74;52.65;99801.88;4958029;29;20023;-87
2022/05/05 00:20:41;;;;;;;4.80;3.33;;;;;;;20.73;52.56;99807.25;4959935;29;20360;-88
2022/05/05 00:23:07;;;;;;;5.10;3.72;;;;;;;20.72;52.62;99802.91;4961417;29;20035;-89
2022/05/05 00:25:33;;;;;;;4.93;3.63;;;;;;;20.73;52.61;99799.31;4963179;29;20033;-89
2022/05/05 00:27:58;;;;;;;4.40;3.30;;;;;;;20.71;52.71;99798.50;4963702;29;20110;-89
2022/05/05 00:30:24;;;;;;;5.40;3.65;;;;;;;20.72;52.75;99794.94;4965044;29;20517;-89
2022/05/05 00:32:49;;;;;;;5.43;4.15;;;;;;;20.69;52.60;99784.50;4966536;29;20057;-89
2022/05/05 00:35:15;;;;;;;4.57;3.45;;;;;;;20.69;52.76;99784.50;4966575;29;20023;-90
2022/05/05 00:37:40;;;;;;;5.28;4.07;;;;;;;20.69;52.45;99780.06;4966909;29;20023;-89
2022/05/05 00:40:07;;;;;;;4.60;3.35;;;;;;;20.69;52.72;99776.53;4965225;29;20027;-89
2022/05/05 00:42:34;;;;;;;5.38;3.70;;;;;;;20.68;52.71;99777.47;4965520;29;20027;-89
2022/05/05 00:45:00;;;;;;;5.00;3.58;;;;;;;20.66;52.67;99775.78;4964898;29;20039;-90
2022/05/05 00:47:26;;;;;;;4.55;3.25;;;;;;;20.66;52.73;99773.13;4963371;29;20098;-87
2022/05/05 00:49:52;;;;;;;4.38;3.40;;;;;;;20.64;52.59;99774.97;4959784;29;20406;-85
2022/05/05 00:52:18;;;;;;;5.35;3.55;;;;;;;20.64;52.68;99777.63;4962191;29;20027;-87
2022/05/05 00:54:44;;;;;;;4.38;3.47;;;;;;;20.63;52.73;99772.44;4960784;29;20192;-87
2022/05/05 00:57:10;;;;;;;3.83;3.10;;;;;;;20.62;52.74;99776.88;4960957;29;20082;-87
2022/05/05 00:59:37;;;;;;;4.35;3.50;;;;;;;20.61;52.65;99777.81;4960671;29;20027;-85
2022/05/05 01:02:03;;;;;;;4.65;3.60;;;;;;;20.61;52.69;99775.16;4961539;29;20031;-86
2022/05/05 01:04:31;;;;;;;4.43;3.22;;;;;;;20.62;52.87;99773.34;4960956;29;20380;-85
2022/05/05 01:06:59;;;;;;;4.63;3.33;;;;;;;20.63;52.50;99772.44;4961476;29;20496;-86
2022/05/05 01:09:25;;;;;;;4.53;3.35;;;;;;;20.61;52.43;99772.53;4961458;29;20023;-84
2022/05/05 01:11:51;;;;;;;4.47;3.33;;;;;;;20.59;52.71;99771.72;4961540;29;20110;-86
2022/05/05 01:14:17;;;;;;;4.07;3.40;;;;;;;20.60;52.64;99772.59;4962216;29;20465;-85
2022/05/05 01:16:43;;;;;;;6.75;3.90;;;;;;;20.59;52.49;99763.78;4961042;29;20034;-85
2022/05/05 01:19:08;;;;;;;3.95;3.08;;;;;;;20.58;52.56;99770.03;4961243;29;20098;-84
2022/05/05 01:21:34;;;;;;;4.35;3.60;;;;;;;20.57;52.53;99768.31;4960707;29;20031;-85
2022/05/05 01:23:59;;;;;;;4.20;3.20;;;;;;;20.56;52.53;99771.91;4959661;29;20035;-84
2022/05/05 01:29:11;;;;;;;4.80;3.25;;;;;;;20.56;52.68;99768.38;4962156;29;20094;-85
2022/05/05 01:31:38;;;;;;;4.80;3.53;;;;;;;20.55;52.60;99769.34;4960464;29;20118;-84
2022/05/05 01:34:04;;;;;;;4.18;3.28;;;;;;;20.55;52.69;99772.84;4960538;29;20073;-86
2022/05/05 01:36:29;;;;;;;4.53;3.47;;;;;;;20.53;52.32;99772.06;4960686;29;20461;-86
2022/05/05 01:38:55;;;;;;;4.22;3.20;;;;;;;20.53;52.41;99772.06;4961019;29;20027;-86
2022/05/05 01:41:21;;;;;;;4.30;3.25;;;;;;;20.51;52.70;99771.28;4962188;29;20450;-85
2022/05/05 01:43:47;;;;;;;4.85;3.38;;;;;;;20.51;52.65;99773.94;4957614;29;20055;-86
2022/05/05 01:46:16;;;;;;;5.15;3.22;;;;;;;20.51;52.38;99774.81;4957540;29;20565;-86
2022/05/05 01:48:42;;;;;;;4.07;3.30;;;;;;;20.51;52.51;99779.25;4958386;29;20413;-85
2022/05/05 01:51:07;;;;;;;4.28;3.00;;;;;;;20.49;52.65;99786.44;4959183;29;20054;-85
2022/05/05 01:53:36;;;;;;;3.58;2.85;;;;;;;20.50;52.45;99780.19;4959237;29;20029;-86
2022/05/05 01:56:13;;;;;;;4.75;3.60;;;;;;;20.49;52.46;99775.84;4958350;29;20038;-85
2022/05/05 01:58:44;;;;;;;4.15;3.35;;;;;;;20.49;52.70;99778.50;4957988;29;20020;-85
2022/05/05 02:01:10;;;;;;;4.28;3.22;;;;;;;20.46;52.53;99782.16;4960647;29;20123;-86
2022/05/05 02:03:36;;;;;;;3.70;2.80;;;;;;;20.46;52.65;99776.00;4960143;29;20130;-86
2022/05/05 02:06:02;;;;;;;4.10;3.08;;;;;;;20.45;52.32;99774.28;4960427;29;20473;-85
2022/05/05 02:08:27;;;;;;;4.15;2.90;;;;;;;20.46;52.53;99782.16;4960645;29;20031;-86
2022/05/05 02:10:53;;;;;;;3.97;3.13;;;;;;;20.45;52.35;99779.59;4960834;29;20031;-86
2022/05/05 02:13:20;;;;;;;4.40;3.45;;;;;;;20.46;52.46;99778.63;4960333;29;20031;-86
2022/05/05 02:15:46;;;;;;;4.03;2.85;;;;;;;20.44;52.61;99777.88;4961388;29;20038;-85
2022/05/05 02:18:12;;;;;;;3.67;2.90;;;;;;;20.44;52.40;99783.19;4961394;29;20027;-86
2022/05/05 02:20:39;;;;;;;4.50;3.08;;;;;;;20.43;52.30;99782.31;4961252;29;20034;-86
2022/05/05 02:23:06;;;;;;;4.15;2.97;;;;;;;20.43;52.21;99786.78;4961089;29;20086;-86
2022/05/05 02:25:32;;;;;;;5.45;3.15;;;;;;;20.41;52.43;99780.69;4961297;29;20071;-86
2022/05/05 02:27:58;;;;;;;4.88;3.55;;;;;;;20.40;52.49;99787.78;4960667;29;20030;-86
2022/05/05 02:30:24;;;;;;;4.78;3.08;;;;;;;20.41;52.37;99789.50;4960797;29;20062;-84
2022/05/05 02:32:51;;;;;;;3.58;2.70;;;;;;;20.39;52.35;99792.22;4960885;29;20449;-87
2022/05/05 02:35:18;;;;;;;3.97;2.90;;;;;;;20.35;52.39;99788.00;4960591;29;20453;-84
2022/05/05 02:40:28;;;;;;;3.17;2.67;;;;;;;20.33;52.35;99787.25;4969923;29;20050;-86
2022/05/05 02:42:55;;;;;;;3.95;3.03;;;;;;;20.34;52.40;99793.41;4968360;29;20031;-86
2022/05/05 02:45:22;;;;;;;4.05;2.70;;;;;;;20.33;52.28;99792.56;4970045;29;20082;-86
2022/05/05 02:47:49;;;;;;;4.40;2.90;;;;;;;20.32;52.33;99790.84;4985150;28;20127;-86
2022/05/05 02:50:15;;;;;;;2.78;2.30;;;;;;;20.30;52.44;99792.72;4966863;29;20027;-87
2022/05/05 02:52:40;;;;;;;3.90;2.70;;;;;;;20.29;52.26;99796.28;4967754;29;20030;-85
2022/05/05 02:55:07;;;;;;;3.10;2.58;;;;;;;20.28;52.31;99799.88;4967403;29;20054;-87
2022/05/05 02:57:33;;;;;;;4.00;2.60;;;;;;;20.27;52.00;99792.88;4967849;29;20102;-87
2022/05/05 02:59:59;;;;;;;4.03;2.88;;;;;;;20.28;52.31;99794.59;4967397;29;20422;-86
2022/05/05 03:02:24;;;;;;;5.35;3.17;;;;;;;20.26;52.44;99797.31;4968400;29;20063;-87
2022/05/05 03:04:51;;;;;;;3.75;2.72;;;;;;;20.26;52.24;99796.47;4967343;29;20465;-86
2022/05/05 03:07:16;;;;;;;3.92;2.70;;;;;;;20.24;52.40;99799.19;4966767;29;20061;-87
2022/05/05 03:09:42;;;;;;;3.67;2.40;;;;;;;20.23;52.49;99802.78;4967497;29;20086;-87
2022/05/05 03:12:09;;;;;;;3.25;2.65;;;;;;;20.25;52.17;99800.06;4967728;29;20461;-88
2022/05/05 03:14:35;;;;;;;4.03;2.58;;;;;;;20.24;52.35;99796.53;4963532;29;20110;-86
2022/05/05 03:17:00;;;;;;;3.47;2.20;;;;;;;20.23;52.36;99800.13;4960975;29;20059;-86
2022/05/05 03:19:26;;;;;;;3.78;2.40;;;;;;;20.22;52.40;99794.91;4961382;29;20035;-86
2022/05/05 03:21:53;;;;;;;3.38;2.53;;;;;;;20.21;52.13;99798.50;4962036;29;20118;-85
2022/05/05 03:24:18;;;;;;;3.38;2.08;;;;;;;20.21;52.36;99798.50;4963633;29;20354;-86
2022/05/05 03:26:44;;;;;;;3.67;2.53;;;;;;;20.20;52.09;99802.09;4963292;29;20063;-85
2022/05/05 03:29:10;;;;;;;3.58;2.45;;;;;;;20.19;52.24;99795.91;4963192;29;20063;-87
2022/05/05 03:31:35;;;;;;;2.92;2.28;;;;;;;20.18;52.23;99799.50;4963763;29;20381;-85
2022/05/05 03:34:01;;;;;;;3.75;2.80;;;;;;;20.19;52.21;99800.38;4964158;29;20049;-85
2022/05/05 03:36:26;;;;;;;3.40;2.33;;;;;;;20.18;52.19;99798.66;4963700;29;20031;-86
2022/05/05 03:38:54;;;;;;;3.20;2.30;;;;;;;20.16;52.23;99801.41;4964965;29;20441;-84
2022/05/05 03:41:19;;;;;;;3.95;2.85;;;;;;;20.16;52.41;99800.53;4963623;29;20424;-85
2022/05/05 03:43:45;;;;;;;3.25;2.50;;;;;;;20.16;52.20;99797.88;4963585;29;20047;-85
2022/05/05 03:46:11;;;;;;;2.85;2.13;;;;;;;20.15;52.13;99798.81;4966378;29;20039;-86
2022/05/05 03:48:36;;;;;;;3.03;2.20;;;;;;;20.14;52.16;99797.13;4964520;28;20090;-87
2022/05/05 03:51:02;;;;;;;3.03;2.28;;;;;;;20.12;52.15;99798.06;4965079;29;20027;-85
2022/05/05 03:53:27;;;;;;;4.20;2.63;;;;;;;20.13;52.00;99801.53;4964666;29;20023;-86
2022/05/05 03:55:53;;;;;;;3.63;2.40;;;;;;;20.12;52.22;99800.72;4964819;29;20027;-86
2022/05/05 03:58:18;;;;;;;3.58;2.40;;;;;;;20.10;52.29;99794.63;4965666;29;20031;-86
2022/05/05 04:00:46;;;;;;;3.70;2.15;;;;;;;20.11;52.14;99793.66;4964976;29;20027;-86
2022/05/05 04:03:30;;;;;;;3.20;2.33;;;;;;;20.10;52.08;99791.97;4965319;29;20023;-86
2022/05/05 04:05:59;;;;;;;3.10;2.30;;;;;;;20.09;52.15;99795.56;4966123;29;20366;-86
2022/05/05 04:08:29;;;;;;;2.83;2.08;;;;;;;20.06;52.19;99795.72;4964816;29;20067;-87
2022/05/05 04:10:55;;;;;;;3.65;2.40;;;;;;;20.07;52.06;99791.28;4963737;29;20531;-84
2022/05/05 04:13:20;;;;;;;3.70;2.40;;;;;;;20.06;52.12;99801.03;4962859;29;20035;-86
2022/05/05 04:15:47;;;;;;;3.22;2.22;;;;;;;20.05;52.29;99803.75;4963100;29;20425;-85
2022/05/05 04:18:12;;;;;;;2.92;2.22;;;;;;;20.06;52.12;99810.75;4962577;29;20041;-85
2022/05/05 04:20:38;;;;;;;3.42;2.55;;;;;;;20.04;52.08;99810.81;4964840;29;20078;-86
2022/05/05 04:23:04;;;;;;;2.97;2.22;;;;;;;20.04;52.19;99821.41;4967459;29;20042;-86
2022/05/05 04:25:30;;;;;;;3.22;2.08;;;;;;;20.03;52.03;99822.34;4965261;29;20031;-88
2022/05/05 04:27:55;;;;;;;2.95;2.28;;;;;;;20.03;52.13;99817.06;4965184;29;20042;-86
2022/05/05 04:30:21;;;;;;;3.20;2.60;;;;;;;20.02;51.99;99825.09;4965760;29;20062;-86
2022/05/05 04:32:47;;;;;;;3.80;2.10;;;;;;;20.02;52.16;99831.25;4964471;29;20035;-87
2022/05/05 04:35:14;;;;;;;2.47;2.00;;;;;;;20.01;52.05;99823.38;4964935;29;20429;-86
2022/05/05 04:37:40;;;;;;;2.53;2.00;;;;;;;19.99;52.22;99826.09;4959642;29;20074;-86
2022/05/05 04:40:08;;;;;;;3.97;2.28;;;;;;;20.00;52.15;99830.44;4958816;29;20039;-86
2022/05/05 04:42:33;;;;;;;3.92;2.17;;;;;;;19.99;51.97;99828.75;4959843;29;20035;-86
2022/05/05 04:44:59;;;;;;;3.08;2.20;;;;;;;19.99;52.10;99839.34;4960109;29;20054;-88
2022/05/05 04:47:24;;;;;;;3.58;2.40;;;;;;;19.98;52.02;99840.28;4961045;29;20042;-85
2022/05/05 04:49:51;;;;;;;3.72;2.50;;;;;;;19.96;52.20;99836.88;4960729;29;20050;-86
2022/05/05 04:52:16;;;;;;;3.65;2.40;;;;;;;19.96;51.84;99847.47;4960412;29;20070;-87
2022/05/05 04:54:43;;;;;;;3.28;2.45;;;;;;;19.94;52.09;99849.28;4961474;29;20033;-86
2022/05/05 04:57:09;;;;;;;4.05;2.25;;;;;;;19.95;51.94;99851.00;4965771;29;20089;-87
2022/05/05 04:59:34;;;;;;;3.33;2.40;;;;;;;19.93;52.03;99856.38;4965207;28;20027;-87
2022/05/05 05:02:00;;;;;;;3.53;2.40;;;;;;;19.94;52.14;99859.88;4965081;29;20166;-88
2022/05/05 05:04:25;;;;;;;3.80;2.30;;;;;;;19.92;52.14;99862.63;4966704;29;20023;-87
2022/05/05 05:06:51;;;;;;;3.10;2.20;;;;;;;19.91;52.09;99870.63;4965174;29;20027;-87
2022/05/05 05:09:16;;;;;;;3.22;2.33;;;;;;;19.90;52.12;99864.47;4967049;29;20034;-86
2022/05/05 05:11:42;;;;;;;2.97;2.22;;;;;;;19.89;52.08;99867.22;4966447;29;20441;-86
2022/05/05 05:14:07;;;;;;;3.30;2.25;;;;;;;19.90;52.31;99863.63;4966859;29;20023;-86
2022/05/05 05:16:33;;;;;;;4.32;2.85;;;;;;;19.90;52.16;99874.22;4965954;29;20042;-87
2022/05/05 05:18:58;;;;;;;4.35;2.50;;;;;;;19.89;51.98;99878.66;4966541;29;21092;-87
2022/05/05 05:21:24;;;;;;;3.17;2.22;;;;;;;19.89;51.91;99885.75;4965993;29;20536;-86
2022/05/05 05:23:50;;;;;;;3.42;2.25;;;;;;;19.88;52.16;99881.38;4965921;29;20130;-86
2022/05/05 05:26:15;;;;;;;3.65;2.38;;;;;;;19.88;51.98;99881.38;4965210;29;20087;-87
2022/05/05 05:28:41;;;;;;;3.42;2.13;;;;;;;19.88;51.96;99886.66;4964479;29;20125;-87
2022/05/05 05:31:08;;;;;;;2.88;2.08;;;;;;;19.88;51.92;99897.25;4968253;29;20031;-88
2022/05/05 05:33:34;;;;;;;3.40;2.20;;;;;;;19.86;52.01;99900.00;4966493;29;20093;-88
2022/05/05 05:35:59;;;;;;;3.88;2.45;;;;;;;19.85;51.96;99899.13;4965535;29;20447;-89
2022/05/05 05:38:25;;;;;;;3.92;2.70;;;;;;;19.86;51.94;99890.25;4965158;29;20093;-89
2022/05/05 05:40:51;;;;;;;3.60;2.47;;;;;;;19.86;52.16;99900.84;4964470;29;20023;-88
2022/05/05 05:43:17;;;;;;;3.55;2.30;;;;;;;19.85;52.15;99893.84;4964715;28;20115;-87
2022/05/05 05:45:43;;;;;;;3.08;2.17;;;;;;;19.84;52.14;99894.78;4964612;29;20473;-85
2022/05/05 05:48:08;;;;;;;3.65;2.40;;;;;;;19.83;51.88;99895.72;4963685;29;20036;-87
2022/05/05 05:50:34;;;;;;;5.25;2.60;;;;;;;19.84;52.07;99907.13;4963523;29;20027;-87
2022/05/05 05:53:00;;;;;;;3.65;2.30;;;;;;;19.84;52.14;99902.72;4963541;29;20047;-86
2022/05/05 05:55:26;;;;;;;3.75;2.53;;;;;;;19.83;51.94;99901.00;4962901;29;20027;-86
2022/05/05 05:57:52;;;;;;;3.60;2.50;;;;;;;19.83;52.09;99905.44;4963894;29;20023;-86
2022/05/05 06:00:18;;;;;;;3.80;2.42;;;;;;;19.83;51.92;99906.31;4963455;29;20051;-86
2022/05/05 06:05:27;;;;;;;3.47;2.28;;;;;;;19.82;51.80;99915.16;4959022;29;20037;-85
2022/05/05 06:08:00;;;;;;;3.85;2.45;;;;;;;19.83;51.73;99913.38;4961046;29;20122;-88
2022/05/05 06:10:27;;;;;;;4.03;2.03;;;;;;;19.81;51.80;99913.44;4961689;29;20201;-86
2022/05/05 06:12:54;;;;;;;3.50;2.42;;;;;;;19.81;51.96;99913.44;4966424;28;20037;-86
2022/05/05 06:15:22;;;;;;;3.55;2.40;;;;;;;19.80;51.97;99917.03;4967708;29;20062;-85
2022/05/05 06:17:48;;;;;;;2.85;2.08;;;;;;;19.80;52.01;99911.75;4968559;29;20034;-85
2022/05/05 06:20:14;;;;;;;3.03;2.22;;;;;;;19.79;52.11;99915.31;4968208;29;20019;-86
2022/05/05 06:22:40;;;;;;;3.65;2.67;;;;;;;19.80;51.69;99906.44;4968651;29;20038;-86
2022/05/05 06:25:06;;;;;;;3.22;2.40;;;;;;;19.80;51.87;99917.03;4968524;29;20104;-86
2022/05/05 06:27:32;;;;;;;3.33;2.20;;;;;;;19.81;51.97;99918.75;4967741;29;20364;-86
2022/05/05 06:29:59;;;;;;;3.80;2.55;;;;;;;19.80;51.77;99917.03;4967800;29;20037;-88
2022/05/05 06:32:25;;;;;;;3.75;2.50;;;;;;;19.80;52.04;99917.03;4967431;29;20121;-85
2022/05/05 06:34:50;;;;;;;3.78;2.65;;;;;;;19.79;51.91;99920.63;4967513;29;20058;-85
2022/05/05 06:37:16;;;;;;;3.58;2.28;;;;;;;19.80;51.82;99921.50;4966262;29;20524;-86
2022/05/05 06:39:41;;;;;;;3.85;2.50;;;;;;;19.79;52.02;99915.31;4968375;29;20042;-84
2022/05/05 06:42:08;;;;;;;3.72;2.30;;;;;;;19.78;52.03;99924.19;4969946;29;20030;-86
2022/05/05 06:44:33;;;;;;;3.63;2.47;;;;;;;19.78;51.73;99928.63;4968268;29;20532;-87
2022/05/05 06:46:59;;;;;;;3.40;2.55;;;;;;;19.79;51.79;99933.00;4969775;29;20114;-86
2022/05/05 06:49:25;;;;;;;3.47;2.40;;;;;;;19.77;51.65;99932.22;4968397;29;20035;-87
2022/05/05 06:51:51;;;;;;;4.75;2.85;;;;;;;19.78;51.92;99934.78;4969589;29;20039;-86
2022/05/05 06:54:16;;;;;;;3.42;2.28;;;;;;;19.78;51.83;99940.09;4967371;29;20031;-86
2022/05/05 06:56:42;;;;;;;3.58;2.35;;;;;;;19.79;51.93;99936.50;4966896;29;20031;-86
2022/05/05 06:59:08;;;;;;;4.63;2.40;;;;;;;19.79;52.10;99947.09;4966943;29;20031;-86
2022/05/05 07:07:03;;;;;;;3.85;2.45;;;;;;;19.79;51.84;99940.94;4967017;29;20436;-86
2022/05/05 07:12:12;;;;;;;3.38;2.45;;;;;;;19.77;51.87;99943.69;4966055;29;20197;-85
2022/05/05 07:14:38;;;;;;;4.10;2.50;;;;;;;19.78;51.98;99948.03;4964762;29;20099;-86
2022/05/05 07:17:04;;;;;;;3.35;2.40;;;;;;;19.78;51.82;99950.69;4966953;29;20042;-87
2022/05/05 07:19:29;;;;;;;4.07;2.35;;;;;;;19.77;51.72;99956.91;4966389;29;20413;-87
2022/05/05 07:21:55;;;;;;;3.67;2.75;;;;;;;19.78;51.76;99955.97;4966689;29;20061;-87
2022/05/05 07:24:20;;;;;;;3.92;2.40;;;;;;;19.79;51.81;99949.75;4966889;28;20429;-87
2022/05/05 07:26:46;;;;;;;3.72;2.45;;;;;;;19.80;51.75;99959.41;4965513;29;20031;-88
2022/05/05 07:29:11;;;;;;;3.25;2.33;;;;;;;19.80;51.90;99962.03;4965006;29;20031;-87
2022/05/05 07:31:37;;;;;;;4.03;2.40;;;;;;;19.82;51.80;99962.81;4959847;29;20035;-86
2022/05/05 07:34:02;;;;;;;4.40;2.63;;;;;;;19.83;51.79;99956.63;4961626;29;20031;-87
2022/05/05 07:36:28;;;;;;;3.58;2.50;;;;;;;19.85;51.61;99960.03;4961719;29;20035;-86
2022/05/05 07:38:54;;;;;;;4.22;2.75;;;;;;;19.85;51.72;99967.97;4963552;29;20145;-85
2022/05/05 07:41:19;;;;;;;5.53;2.83;;;;;;;19.85;51.99;99961.81;4962566;29;20027;-86
2022/05/05 07:43:45;;;;;;;3.85;2.40;;;;;;;19.85;51.84;99967.97;4963971;29;20540;-87
2022/05/05 07:46:10;;;;;;;4.30;2.65;;;;;;;19.88;51.49;99960.81;4964671;29;20039;-86
2022/05/05 07:48:36;;;;;;;4.28;2.78;;;;;;;19.90;51.64;99965.09;4965662;29;20039;-87
2022/05/05 07:51:02;;;;;;;4.85;3.03;;;;;;;19.92;51.68;99963.25;4967879;29;20042;-88
2022/05/05 07:53:27;;;;;;;4.47;2.80;;;;;;;19.92;51.58;99962.38;4966281;29;20031;-87
2022/05/05 07:55:53;;;;;;;4.82;2.60;;;;;;;19.92;51.54;99960.59;4967449;29;20037;-86
2022/05/05 07:58:18;;;;;;;3.47;2.40;;;;;;;19.91;51.56;99958.03;4965997;29;20071;-88
2022/05/05 08:00:44;;;;;;;4.68;2.65;;;;;;;19.94;51.72;99965.81;4968429;29;20075;-88
2022/05/05 08:03:09;;;;;;;4.85;2.70;;;;;;;19.94;51.57;99960.50;4966240;29;20037;-88
2022/05/05 08:05:35;;;;;;;4.28;2.72;;;;;;;19.97;51.32;99958.63;4967490;29;20027;-88
2022/05/05 08:08:00;;;;;;;3.90;2.35;;;;;;;19.99;51.58;99967.34;4966912;29;20043;-89
2022/05/05 08:10:28;;;;;;;4.00;2.95;;;;;;;20.00;51.40;99960.25;4969108;29;20045;-87
2022/05/05 08:12:54;;;;;;;3.95;2.47;;;;;;;19.99;51.52;99963.84;4964850;29;20027;-86
2022/05/05 08:15:20;;;;;;;4.07;2.58;;;;;;;20.02;51.63;99971.63;4964641;29;20030;-86
2022/05/05 08:17:47;;;;;;;3.33;2.25;;;;;;;20.02;51.52;99968.13;4963475;29;20038;-86
2022/05/05 08:20:15;;;;;;;4.60;2.65;;;;;;;19.99;51.63;99964.69;4962888;29;20090;-86
2022/05/05 08:22:41;;;;;;;4.05;2.55;;;;;;;19.99;51.67;99963.84;4962912;29;20031;-86
2022/05/05 08:30:38;;;;;;;6.25;2.70;;;;;;;20.01;51.65;99966.41;4966690;29;20492;-86
2022/05/05 08:33:03;;;;;;;4.43;2.42;;;;;;;20.03;51.83;99965.41;4965741;29;20461;-86
2022/05/05 08:35:29;;;;;;;4.80;2.83;;;;;;;20.04;51.78;99972.41;4965309;28;20058;-85
2022/05/05 08:37:56;;;;;;;4.35;2.90;;;;;;;20.07;51.83;99976.72;4964804;29;20042;-85
2022/05/05 08:40:27;;;;;;;3.33;2.45;;;;;;;20.09;51.84;99970.41;4964632;29;20066;-85
2022/05/05 08:42:53;;;;;;;3.72;2.60;;;;;;;20.10;51.51;99976.56;4964607;29;20038;-86
2022/05/05 08:45:20;;;;;;;3.60;2.33;;;;;;;20.11;51.73;99971.19;4966328;29;20091;-86
2022/05/05 08:47:47;;;;;;;4.05;2.42;;;;;;;20.13;51.60;99965.81;4964405;29;20042;-84
2022/05/05 08:50:12;;;;;;;3.97;2.53;;;;;;;20.17;51.47;99977.09;4963445;29;20031;-84
2022/05/05 08:52:49;;;;;;;4.13;2.70;;;;;;;20.18;51.38;99978.81;4962737;29;20038;-85
2022/05/05 08:55:20;;;;;;;3.42;2.40;;;;;;;20.21;51.42;99983.97;4962007;29;20027;-88
2022/05/05 08:57:46;;;;;;;3.67;2.38;;;;;;;20.21;51.60;99976.03;4957820;29;20110;-84
2022/05/05 09:00:14;;;;;;;4.22;2.35;;;;;;;20.22;51.38;99977.75;4959175;29;20035;-86
2022/05/05 09:02:41;;;;;;;4.57;2.60;;;;;;;20.24;51.47;99986.50;4958888;29;20050;-85
2022/05/05 09:05:08;;;;;;;3.90;2.60;;;;;;;20.26;51.23;99981.97;4959566;29;20035;-85
2022/05/05 09:07:52;;;;;;;4.00;2.45;;;;;;;20.29;51.44;99979.16;4960193;29;20038;-86
2022/05/05 09:10:20;;;;;;;3.97;2.40;;;;;;;20.30;51.16;99983.53;4960963;29;20038;-85
2022/05/05 09:13:02;;;;;;;3.67;2.40;;;;;;;20.32;51.12;99981.66;4961562;29;20035;-85
2022/05/05 09:15:32;;;;;;;4.55;2.65;;;;;;;20.32;51.15;99976.34;4961145;29;20481;-86
2022/05/05 09:18:12;;;;;;;4.10;2.78;;;;;;;20.34;51.13;99978.94;4960894;29;20046;-87
2022/05/05 09:20:38;;;;;;;3.65;2.50;;;;;;;20.36;51.13;99977.06;4962711;29;20031;-85
2022/05/05 09:23:03;;;;;;;5.13;2.47;;;;;;;20.38;51.26;99983.13;4961324;28;20086;-85
2022/05/05 09:25:49;;;;;;;3.40;2.40;;;;;;;20.41;51.10;99984.75;4962887;29;20041;-85
2022/05/05 09:28:22;;;;;;;3.55;2.47;;;;;;;20.42;51.00;99978.53;4961919;29;20042;-86
2022/05/05 09:30:52;;;;;;;3.42;2.70;;;;;;;20.44;50.93;99974.03;4960330;29;20484;-85
2022/05/05 09:33:39;;;;;;;3.88;2.83;;;;;;;20.46;50.86;99977.44;4961556;29;20035;-85
2022/05/05 09:36:13;;;;;;;3.83;2.53;;;;;;;20.47;51.12;99968.56;4963020;29;20126;-88
2022/05/05 09:38:54;;;;;;;3.83;2.72;;;;;;;20.49;50.94;99972.00;4962679;29;20031;-86
2022/05/05 09:41:22;;;;;;;4.70;2.50;;;;;;;20.50;51.14;99960.47;4962540;29;20035;-87
2022/05/05 09:43:49;;;;;;;3.85;2.50;;;;;;;20.51;51.10;99959.50;4961992;29;20059;-87
2022/05/05 09:46:25;;;;;;;4.45;2.40;;;;;;;20.53;50.88;99962.94;4962642;28;20046;-85
2022/05/05 09:49:03;;;;;;;3.90;2.40;;;;;;;20.56;50.73;99956.63;4961921;29;20479;-86
2022/05/05 09:51:29;;;;;;;3.88;2.50;;;;;;;20.57;50.95;99959.19;4961360;29;20037;-85
2022/05/05 09:59:39;;;;;;;3.90;2.70;;;;;;;20.62;50.93;99981.03;4962202;29;20521;-86
2022/05/05 10:02:15;;;;;;;3.28;2.35;;;;;;;20.64;50.80;99973.00;4960821;29;20035;-87
2022/05/05 10:04:48;;;;;;;3.67;2.45;;;;;;;20.64;50.64;99971.19;4960677;29;20039;-86
2022/05/05 10:07:19;;;;;;;3.22;2.22;;;;;;;20.66;50.87;99974.66;4960215;29;20061;-84
2022/05/05 10:09:47;;;;;;;4.30;2.72;;;;;;;20.69;50.64;99973.63;4964636;29;20027;-88
2022/05/05 10:12:14;;;;;;;3.85;2.47;;;;;;;20.70;50.76;99985.06;4963340;29;20039;-86
2022/05/05 10:14:41;;;;;;;3.65;2.63;;;;;;;20.70;50.83;99969.16;4966244;29;20023;-87
2022/05/05 10:17:07;;;;;;;4.53;2.90;;;;;;;20.71;50.53;99973.53;4965620;29;20073;-86
2022/05/05 10:19:34;;;;;;;3.83;2.42;;;;;;;20.71;50.83;99976.19;4966223;29;20031;-86
2022/05/05 10:22:13;;;;;;;3.97;2.70;;;;;;;20.72;50.72;99976.09;4966302;29;20027;-88
2022/05/05 10:24:49;;;;;;;4.20;2.60;;;;;;;20.74;50.99;99976.91;4957792;29;20027;-85
2022/05/05 10:27:16;;;;;;;3.50;2.47;;;;;;;20.76;50.83;99982.97;4968346;29;20031;-86
2022/05/05 10:29:44;;;;;;;4.10;2.63;;;;;;;20.78;50.70;99982.91;4968573;29;20090;-86
2022/05/05 10:32:24;;;;;;;3.38;2.28;;;;;;;20.78;50.53;99972.28;4968941;29;20031;-87
2022/05/05 10:35:12;;;;;;;3.70;2.50;;;;;;;20.80;50.37;99975.72;4968654;29;20042;-87
2022/05/05 10:37:39;;;;;;;3.88;2.30;;;;;;;20.81;50.79;99972.13;4967864;29;20041;-87
2022/05/05 10:40:10;;;;;;;3.45;2.10;;;;;;;20.83;50.37;99980.00;4959864;29;20035;-84
2022/05/05 10:42:41;;;;;;;3.65;2.50;;;;;;;20.85;50.41;99983.44;4957724;29;20031;-85
2022/05/05 10:45:30;;;;;;;3.95;2.67;;;;;;;20.87;50.54;99979.78;4960012;29;20043;-87
2022/05/05 10:50:50;;;;;;;3.30;2.20;;;;;;;20.89;50.33;99980.59;4959850;29;20156;-87
2022/05/05 10:53:25;;;;;;;4.35;2.40;;;;;;;20.91;50.43;99983.13;4957980;29;20488;-87
2022/05/05 10:55:51;;;;;;;3.78;2.40;;;;;;;20.92;50.76;99979.56;4958790;29;20063;-87
2022/05/05 10:58:54;;;;;;;3.50;2.22;;;;;;;20.95;50.31;99978.53;4959186;28;20070;-85
2022/05/05 11:01:20;;;;;;;4.30;2.80;;;;;;;20.96;50.50;99974.97;4962776;29;20464;-87
2022/05/05 11:04:05;;;;;;;3.50;2.30;;;;;;;20.96;50.24;99975.78;4961571;29;20031;-85
2022/05/05 11:06:32;;;;;;;4.13;2.58;;;;;;;20.97;50.46;99974.00;4961917;29;20035;-85
2022/05/05 11:08:58;;;;;;;3.05;2.33;;;;;;;20.99;50.39;99964.16;4961564;29;20460;-87
2022/05/05 11:11:42;;;;;;;3.90;2.33;;;;;;;21.01;50.38;99967.63;4961403;29;20031;-86
2022/05/05 11:23:08;;;;;;;3.58;2.40;;;;;;;21.08;50.37;99955.72;4962825;29;20102;-86
2022/05/05 11:25:34;;;;;;;3.17;2.25;;;;;;;21.10;50.22;99955.66;4961822;29;20041;-85
2022/05/05 11:27:59;;;;;;;3.55;2.15;;;;;;;21.11;50.40;99963.50;4962769;29;20027;-87
2022/05/05 11:30:25;;;;;;;3.92;2.22;;;;;;;21.11;50.01;99952.88;4961790;29;20059;-87
2022/05/05 11:32:50;;;;;;;2.92;2.17;;;;;;;21.14;50.26;99946.56;4961776;29;20023;-87
2022/05/05 11:35:21;;;;;;;3.33;2.05;;;;;;;21.14;50.26;99955.41;4960820;29;20029;-86
2022/05/05 11:37:47;;;;;;;3.15;2.28;;;;;;;21.15;50.26;99949.13;4960918;29;20217;-87
2022/05/05 11:40:13;;;;;;;3.80;2.30;;;;;;;21.16;50.29;99952.66;4960534;29;20472;-86
2022/05/05 11:45:30;;;;;;;2.65;1.90;;;;;;;21.18;50.32;99954.28;4961524;29;20058;-87
2022/05/05 11:47:56;;;;;;;3.30;2.40;;;;;;;21.21;50.05;99952.41;4960070;29;20031;-82
2022/05/05 11:50:22;;;;;;;3.10;2.20;;;;;;;21.21;50.37;99944.44;4959855;29;20166;-87
2022/05/05 11:52:48;;;;;;;3.83;1.85;;;;;;;21.23;50.27;99939.91;4958052;29;20110;-85
2022/05/05 11:55:19;;;;;;;3.20;2.25;;;;;;;21.23;50.37;99948.72;4958536;29;20033;-85
2022/05/05 11:57:47;;;;;;;3.88;2.47;;;;;;;21.24;50.20;99942.47;4960982;29;20062;-85
2022/05/05 12:02:59;;;;;;;3.63;2.40;;;;;;;21.26;50.67;99934.44;4960924;29;20034;-84
2022/05/05 12:05:25;;;;;;;3.50;2.50;;;;;;;21.27;50.45;99936.16;4959383;29;20031;-83
2022/05/05 12:07:52;;;;;;;3.55;2.00;;;;;;;21.29;50.42;99936.91;4959215;29;20113;-83
2022/05/05 12:10:21;;;;;;;3.60;2.30;;;;;;;21.30;50.38;99935.97;4959036;28;20019;-85
2022/05/05 12:12:49;;;;;;;3.35;2.30;;;;;;;21.30;50.15;99936.84;4959241;29;20191;-85
2022/05/05 12:15:17;;;;;;;3.35;2.42;;;;;;;21.31;50.23;99943.00;4959141;29;20413;-83
2022/05/05 12:17:49;;;;;;;3.35;2.15;;;;;;;21.32;50.26;99936.75;4959724;29;20027;-85
2022/05/05 12:20:19;;;;;;;3.00;2.20;;;;;;;21.32;50.26;99934.09;4960536;29;20373;-85
2022/05/05 12:22:53;;;;;;;3.08;1.83;;;;;;;21.33;50.58;99941.13;4959993;29;20027;-85
2022/05/05 12:25:20;;;;;;;3.22;2.20;;;;;;;21.33;50.16;99930.50;4959494;29;20023;-84